Time;durP1;ratioP1;P1;durP2;ratioP2;P2;SDS_P1;SDS_P2;PMS_P1;PMS_P2;Temp;Humidity;BMP_temperature;BMP_pressure;BME280_temperature;BME280_humidity;BME280_pressure;Samples;Min_cycle;Max_cycle;Signal;HPM_P1;HPM_P2
2023/06/03 00:01:07;;;;;;;7.55;3.53;;;;;;;-142.75;100.00;77406.97;5044463;28;20211;-67
2023/06/03 00:03:32;;;;;;;7.38;3.35;;;;;;;-142.75;100.00;77416.81;5047534;28;20075;-67
2023/06/03 00:06:01;;;;;;;7.55;3.45;;;;;;;-142.75;100.00;77412.88;5028195;28;20417;-66
2023/06/03 00:08:26;;;;;;;8.27;3.75;;;;;;;-142.75;100.00;77420.75;5027517;28;20049;-66
2023/06/03 00:10:52;;;;;;;6.93;3.38;;;;;;;-142.75;100.00;77424.69;5027323;28;20060;-66
2023/06/03 00:13:17;;;;;;;8.27;3.63;;;;;;;-142.75;100.00;77428.63;5027467;28;20101;-67
2023/06/03 00:15:42;;;;;;;10.15;4.07;;;;;;;-142.75;100.00;77436.50;4990783;28;1068729;-66
2023/06/03 00:18:08;;;;;;;7.72;3.42;;;;;;;-142.75;100.00;77438.47;5048369;28;20685;-66
2023/06/03 00:20:35;;;;;;;8.73;3.88;;;;;;;-142.75;100.00;77444.38;5048429;28;20501;-66
2023/06/03 00:23:04;;;;;;;7.13;3.38;;;;;;;-142.75;100.00;77438.47;5041533;28;20171;-67
2023/06/03 00:25:31;;;;;;;7.90;3.50;;;;;;;-142.75;100.00;77442.41;5042079;28;20056;-67
2023/06/03 00:27:56;;;;;;;8.73;3.55;;;;;;;-142.75;100.00;77450.28;5028375;28;20025;-66
2023/06/03 00:30:22;;;;;;;5.20;3.03;;;;;;;-142.75;100.00;77458.16;5028384;28;20053;-66
2023/06/03 00:32:47;;;;;;;6.93;3.40;;;;;;;-142.75;100.00;77464.09;5028270;28;20036;-67
2023/06/03 00:35:13;;;;;;;6.35;3.28;;;;;;;-142.75;100.00;77460.13;5028364;28;20155;-66
2023/06/03 00:37:39;;;;;;;8.15;3.50;;;;;;;-142.75;100.00;77452.25;5028622;28;20029;-67
2023/06/03 00:40:07;;;;;;;6.22;3.22;;;;;;;-142.75;100.00;77466.03;5032299;28;20017;-65
2023/06/03 00:42:32;;;;;;;10.60;3.80;;;;;;;-142.75;100.00;77462.13;5048247;28;20055;-66
2023/06/03 00:44:57;;;;;;;7.88;3.67;;;;;;;-142.75;100.00;77468.03;5043969;28;20476;-66
2023/06/03 00:47:23;;;;;;;10.20;3.50;;;;;;;-142.75;100.00;77464.09;5027747;28;20593;-67
2023/06/03 00:49:49;;;;;;;5.80;3.08;;;;;;;-142.75;100.00;77477.88;5037274;28;20371;-66
2023/06/03 00:52:15;;;;;;;5.75;3.70;;;;;;;-142.75;100.00;77475.91;5028851;28;20410;-66
2023/06/03 00:54:41;;;;;;;7.22;3.63;;;;;;;-142.75;100.00;77471.97;5028855;28;20052;-66
2023/06/03 00:57:06;;;;;;;6.05;3.20;;;;;;;-142.75;100.00;77471.97;5029511;28;20025;-67
2023/06/03 00:59:32;;;;;;;6.63;3.45;;;;;;;-142.75;100.00;77487.72;5028001;28;20253;-66
2023/06/03 01:01:58;;;;;;;6.03;3.45;;;;;;;-142.75;100.00;77491.66;5043804;28;20025;-66
2023/06/03 01:04:28;;;;;;;9.57;2.90;;;;;;;-142.75;100.00;77497.56;5047504;28;20071;-68
2023/06/03 01:07:16;;;;;;;8.18;3.42;;;;;;;-142.75;100.00;77485.75;5047311;28;20029;-66
2023/06/03 01:10:00;;;;;;;6.60;2.47;;;;;;;-142.75;100.00;77481.81;5036425;28;20490;-68
2023/06/03 01:12:33;;;;;;;5.25;2.90;;;;;;;-142.75;100.00;77473.94;5034590;28;20104;-67
2023/06/03 01:15:07;;;;;;;5.03;2.97;;;;;;;-142.75;100.00;77479.84;5027660;28;20021;-65
2023/06/03 01:17:47;;;;;;;8.20;3.50;;;;;;;-142.75;100.00;77475.91;5033402;28;20037;-67
2023/06/03 01:20:14;;;;;;;5.80;3.22;;;;;;;-142.75;100.00;77473.94;5027622;28;20486;-65
2023/06/03 01:22:42;;;;;;;7.25;3.10;;;;;;;-142.75;100.00;77483.78;5027863;28;20048;-66
2023/06/03 01:25:10;;;;;;;5.13;3.42;;;;;;;-142.75;100.00;77489.69;5047588;28;20043;-66
2023/06/03 01:27:39;;;;;;;6.63;3.30;;;;;;;-142.75;100.00;77495.59;5045731;28;20507;-67
2023/06/03 01:30:13;;;;;;;8.20;3.70;;;;;;;-142.75;100.00;77493.63;5027046;28;20037;-67
2023/06/03 01:32:41;;;;;;;8.50;3.00;;;;;;;-142.75;100.00;77499.53;5034489;28;20175;-67
2023/06/03 01:35:08;;;;;;;7.50;3.10;;;;;;;-142.75;100.00;77491.66;5027268;28;20059;-67
2023/06/03 01:37:34;;;;;;;11.50;3.00;;;;;;;-142.75;100.00;77489.69;5034942;28;20040;-67
2023/06/03 01:40:01;;;;;;;5.53;3.25;;;;;;;-142.75;100.00;77491.66;5029389;28;20022;-65
2023/06/03 01:42:26;;;;;;;5.57;3.20;;;;;;;-142.75;100.00;77479.84;5034035;28;20021;-67
2023/06/03 01:44:53;;;;;;;8.60;3.10;;;;;;;-142.75;100.00;77483.78;5044367;28;20036;-66
2023/06/03 01:47:19;;;;;;;5.35;2.92;;;;;;;-142.75;100.00;77513.31;5045595;28;20044;-67
2023/06/03 01:49:44;;;;;;;8.70;3.10;;;;;;;-142.75;100.00;77491.66;5046512;28;20021;-67
2023/06/03 01:52:10;;;;;;;5.03;2.58;;;;;;;-142.75;100.00;77495.59;5047071;28;20055;-67
2023/06/03 01:54:35;;;;;;;6.72;2.55;;;;;;;-142.75;100.00;77509.38;5030664;28;20056;-66
2023/06/03 01:57:02;;;;;;;5.68;2.90;;;;;;;-142.75;100.00;77509.38;5027035;28;20032;-67
2023/06/03 01:59:27;;;;;;;6.82;2.90;;;;;;;-142.75;100.00;77513.31;5027203;28;20556;-66
2023/06/03 02:01:54;;;;;;;8.80;3.20;;;;;;;-142.75;100.00;77527.09;5026465;28;20025;-66
2023/06/03 02:04:19;;;;;;;5.50;2.72;;;;;;;-142.75;100.00;77511.34;5026628;28;20061;-67
2023/06/03 02:06:52;;;;;;;8.20;2.97;;;;;;;-142.75;100.00;77509.38;5026564;28;20625;-66
2023/06/03 02:09:18;;;;;;;5.07;2.75;;;;;;;-142.75;100.00;77505.44;5027960;28;20018;-67
2023/06/03 02:11:44;;;;;;;8.52;2.60;;;;;;;-142.75;100.00;77527.09;5046430;28;20644;-63
2023/06/03 02:14:11;;;;;;;5.43;2.75;;;;;;;-142.75;100.00;77531.03;5046578;28;20448;-66
2023/06/03 02:16:37;;;;;;;5.85;3.10;;;;;;;-142.75;100.00;77538.91;5031597;28;20033;-66
2023/06/03 02:19:10;;;;;;;9.48;3.15;;;;;;;-142.75;100.00;77538.91;5026361;28;20083;-66
2023/06/03 02:21:36;;;;;;;9.02;3.05;;;;;;;-142.75;100.00;77546.78;5036020;28;20033;-67
2023/06/03 02:24:02;;;;;;;9.43;3.85;;;;;;;-142.75;100.00;77554.66;5030668;28;20036;-66
2023/06/03 02:26:28;;;;;;;7.32;3.50;;;;;;;-142.75;100.00;77556.63;5026469;28;20021;-67
2023/06/03 02:28:53;;;;;;;4.38;2.92;;;;;;;-142.75;100.00;77546.78;5041726;28;20116;-67
2023/06/03 02:31:19;;;;;;;6.47;3.58;;;;;;;-142.75;100.00;77538.91;5032773;28;20100;-66
2023/06/03 02:33:44;;;;;;;8.90;3.00;;;;;;;-142.75;100.00;77542.84;5037450;28;20709;-67
2023/06/03 02:36:11;;;;;;;7.43;3.53;;;;;;;-142.75;100.00;77550.72;5041303;28;20020;-67
2023/06/03 02:38:37;;;;;;;9.02;3.47;;;;;;;-142.75;100.00;77542.84;5045955;28;20013;-66
2023/06/03 02:41:02;;;;;;;7.90;3.65;;;;;;;-142.75;100.00;77533.00;5038571;28;20021;-66
2023/06/03 02:43:27;;;;;;;8.00;3.00;;;;;;;-142.75;100.00;77544.81;5026044;28;20083;-67
2023/06/03 02:45:53;;;;;;;6.57;3.00;;;;;;;-142.75;100.00;77560.56;5025682;28;20573;-66
2023/06/03 02:48:18;;;;;;;5.82;3.00;;;;;;;-142.75;100.00;77552.69;5027098;28;20041;-66
2023/06/03 02:50:43;;;;;;;6.82;3.33;;;;;;;-142.75;100.00;77554.66;5045718;28;20027;-64
2023/06/03 02:53:09;;;;;;;5.03;3.10;;;;;;;-142.75;100.00;77568.44;5045768;28;20087;-66
2023/06/03 02:55:36;;;;;;;5.78;3.10;;;;;;;-142.75;100.00;77566.47;5046319;28;20028;-67
2023/06/03 02:58:02;;;;;;;9.35;2.70;;;;;;;-142.75;100.00;77572.38;5045680;28;20453;-67
2023/06/03 03:00:27;;;;;;;7.68;3.20;;;;;;;-142.75;100.00;77574.34;5045165;28;20056;-66
2023/06/03 03:02:53;;;;;;;4.82;3.40;;;;;;;-142.75;100.00;77574.34;5030167;28;20084;-66
2023/06/03 03:05:19;;;;;;;8.15;3.33;;;;;;;-142.75;100.00;77576.31;5025953;28;20025;-68
2023/06/03 03:07:46;;;;;;;5.28;3.45;;;;;;;-142.75;100.00;77584.19;5049539;28;20456;-67
2023/06/03 03:10:11;;;;;;;5.30;2.90;;;;;;;-142.75;100.00;77594.03;5034085;28;20048;-67
2023/06/03 03:12:36;;;;;;;4.85;2.88;;;;;;;-142.75;100.00;77590.09;5025682;28;20033;-66
2023/06/03 03:15:02;;;;;;;6.32;3.03;;;;;;;-142.75;100.00;77594.03;5024984;28;20282;-66
2023/06/03 03:17:28;;;;;;;6.97;3.58;;;;;;;-142.75;100.00;77590.09;5025506;28;20478;-67
2023/06/03 03:19:53;;;;;;;7.00;3.22;;;;;;;-142.75;100.00;77594.03;5028142;28;20101;-65
2023/06/03 03:22:18;;;;;;;8.73;3.67;;;;;;;-142.75;100.00;77601.91;5045550;28;20074;-66
2023/06/03 03:24:44;;;;;;;5.85;3.40;;;;;;;-142.75;100.00;77613.72;5025654;28;20391;-64
2023/06/03 03:27:09;;;;;;;7.07;3.22;;;;;;;-142.75;100.00;77617.66;5040795;28;20133;-66
2023/06/03 03:29:34;;;;;;;5.03;3.17;;;;;;;-142.75;100.00;77611.75;5025338;28;20026;-67
2023/06/03 03:32:07;;;;;;;5.25;3.45;;;;;;;-142.75;100.00;77617.66;5026087;28;20029;-66
2023/06/03 03:34:32;;;;;;;6.65;3.10;;;;;;;-142.75;100.00;77617.66;5045667;28;20025;-65
2023/06/03 03:36:58;;;;;;;7.22;3.75;;;;;;;-142.75;100.00;77611.75;5027722;28;20083;-66
2023/06/03 03:39:24;;;;;;;5.80;3.58;;;;;;;-142.75;100.00;77617.66;5044364;28;20489;-67
2023/06/03 03:41:49;;;;;;;5.40;3.08;;;;;;;-142.75;100.00;77627.50;5048903;28;20021;-67
2023/06/03 03:44:15;;;;;;;6.03;3.47;;;;;;;-142.75;100.00;77621.59;5031988;28;20018;-66
2023/06/03 03:46:47;;;;;;;7.53;3.70;;;;;;;-142.75;100.00;77625.53;5049202;28;20028;-66
2023/06/03 03:49:25;;;;;;;8.45;3.60;;;;;;;-142.75;100.00;77623.56;5049821;28;20135;-67
2023/06/03 03:51:50;;;;;;;9.05;3.33;;;;;;;-142.75;100.00;77633.41;5028887;28;20034;-66
2023/06/03 03:54:20;;;;;;;6.63;3.10;;;;;;;-142.75;100.00;77637.34;5029837;28;20433;-66
2023/06/03 03:56:46;;;;;;;9.07;3.65;;;;;;;-142.75;100.00;77631.44;5028712;28;20051;-66
2023/06/03 03:59:15;;;;;;;4.75;3.17;;;;;;;-142.75;100.00;77639.31;5029315;28;20728;-67
2023/06/03 04:01:43;;;;;;;5.35;3.15;;;;;;;-142.75;100.00;77621.59;5030745;28;20083;-66
2023/06/03 04:04:10;;;;;;;6.55;3.50;;;;;;;-142.75;100.00;77625.53;5029194;28;20045;-66
2023/06/03 04:06:38;;;;;;;5.45;2.95;;;;;;;-142.75;100.00;77625.53;5029104;28;20029;-66
2023/06/03 04:09:04;;;;;;;7.50;3.45;;;;;;;-142.75;100.00;77623.56;5028646;28;20158;-66
2023/06/03 04:11:38;;;;;;;6.65;3.70;;;;;;;-142.75;100.00;77617.66;5028777;28;20355;-65
2023/06/03 04:14:08;;;;;;;5.28;3.20;;;;;;;-142.75;100.00;77619.63;5045013;28;20025;-66
2023/06/03 04:16:51;;;;;;;4.45;3.03;;;;;;;-142.75;100.00;77621.59;5048361;28;20027;-66
2023/06/03 04:19:21;;;;;;;6.63;2.92;;;;;;;-142.75;100.00;77627.50;5048635;28;20059;-66
2023/06/03 04:21:46;;;;;;;5.32;3.42;;;;;;;-142.75;100.00;77615.69;5058802;28;20057;-64
2023/06/03 04:24:12;;;;;;;6.53;3.45;;;;;;;-142.75;100.00;77609.78;5029480;28;20033;-67
2023/06/03 04:26:38;;;;;;;7.63;3.45;;;;;;;-142.75;100.00;77617.66;5028473;28;20029;-67
2023/06/03 04:29:04;;;;;;;6.18;3.70;;;;;;;-142.75;100.00;77609.78;5028386;28;20026;-66
2023/06/03 04:31:30;;;;;;;6.57;3.80;;;;;;;-142.75;100.00;77601.91;5028474;28;20078;-65
2023/06/03 04:33:55;;;;;;;7.15;3.53;;;;;;;-142.75;100.00;77590.09;5028319;28;20124;-65
2023/06/03 04:36:20;;;;;;;9.07;4.10;;;;;;;-142.75;100.00;77590.09;5030306;28;20029;-67
2023/06/03 04:38:46;;;;;;;8.32;3.28;;;;;;;-142.75;100.00;77572.38;5048172;28;20017;-66
2023/06/03 04:41:11;;;;;;;7.25;3.00;;;;;;;-142.75;100.00;77580.25;5063252;28;20024;-66
2023/06/03 04:43:38;;;;;;;7.30;3.60;;;;;;;-142.75;100.00;77562.53;5048415;28;20028;-66
2023/06/03 04:46:06;;;;;;;7.93;3.55;;;;;;;-142.75;100.00;77562.53;5048087;28;20029;-65
2023/06/03 04:48:33;;;;;;;5.88;3.15;;;;;;;-142.75;100.00;77560.56;5063065;28;20017;-66
2023/06/03 04:51:00;;;;;;;6.32;3.40;;;;;;;-142.75;100.00;77540.88;5047321;28;20025;-65
2023/06/03 04:53:25;;;;;;;8.80;3.80;;;;;;;-142.75;100.00;77531.03;5046058;28;20021;-66
2023/06/03 04:55:51;;;;;;;9.40;3.50;;;;;;;-142.75;100.00;77534.97;5043922;28;20520;-66
2023/06/03 04:58:18;;;;;;;6.03;3.38;;;;;;;-142.75;100.00;77523.16;5028067;28;20021;-67
2023/06/03 05:00:45;;;;;;;8.68;3.97;;;;;;;-142.75;100.00;77523.16;5027689;28;20053;-64
2023/06/03 05:03:10;;;;;;;7.95;3.70;;;;;;;-142.75;100.00;77511.34;5028048;28;20048;-66
2023/06/03 05:05:42;;;;;;;5.25;3.00;;;;;;;-142.75;100.00;77517.25;5027687;28;20061;-66
2023/06/03 05:08:09;;;;;;;8.77;3.80;;;;;;;-142.75;100.00;77519.22;5026622;28;20025;-66
2023/06/03 05:10:35;;;;;;;6.93;3.55;;;;;;;-142.75;100.00;77513.31;5027517;28;20025;-65
2023/06/03 05:13:01;;;;;;;7.82;3.13;;;;;;;-142.75;100.00;77497.56;5027915;28;20395;-66
2023/06/03 05:15:27;;;;;;;8.25;3.40;;;;;;;-142.75;100.00;77499.53;5027645;28;20026;-67
2023/06/03 05:17:52;;;;;;;7.75;3.55;;;;;;;-142.75;100.00;77485.75;5027643;28;20104;-65
2023/06/03 05:20:17;;;;;;;11.00;4.30;;;;;;;-142.75;100.00;77487.72;5027508;28;20152;-66
2023/06/03 05:22:43;;;;;;;5.97;3.00;;;;;;;-142.75;100.00;77475.91;5027931;28;20026;-66
2023/06/03 05:25:08;;;;;;;8.02;3.13;;;;;;;-142.75;100.00;77471.97;5028009;28;20017;-66
2023/06/03 05:27:34;;;;;;;5.38;3.03;;;;;;;-142.75;100.00;77464.09;5027552;28;20036;-65
2023/06/03 05:29:59;;;;;;;7.03;2.83;;;;;;;-142.75;100.00;77491.66;5036860;28;20055;-67
2023/06/03 05:32:25;;;;;;;4.85;2.80;;;;;;;-142.75;100.00;77466.03;5027531;28;20018;-66
2023/06/03 05:34:50;;;;;;;9.25;2.83;;;;;;;-142.75;100.00;77450.28;5027326;28;20029;-66
2023/06/03 05:37:16;;;;;;;6.05;3.00;;;;;;;-142.75;100.00;77456.22;5027109;28;20109;-66
2023/06/03 05:39:41;;;;;;;6.45;2.97;;;;;;;-142.75;100.00;77446.34;5027562;28;20025;-66
2023/06/03 05:42:06;;;;;;;6.40;3.05;;;;;;;-142.75;100.00;77438.47;5027020;28;20100;-67
2023/06/03 05:44:32;;;;;;;5.22;2.90;;;;;;;-142.75;100.00;77471.97;5027233;28;20108;-67
2023/06/03 05:46:57;;;;;;;5.47;2.25;;;;;;;-142.75;100.00;77414.84;5030405;28;20134;-66
2023/06/03 05:49:22;;;;;;;5.50;2.65;;;;;;;-142.75;100.00;77438.47;5046678;28;20482;-66
2023/06/03 05:51:48;;;;;;;6.82;2.72;;;;;;;-142.75;100.00;77448.34;5061737;28;20027;-65
2023/06/03 05:54:13;;;;;;;3.83;2.55;;;;;;;-142.75;100.00;77403.03;5046344;28;20025;-65
2023/06/03 05:56:39;;;;;;;5.60;2.53;;;;;;;-142.75;100.00;77373.50;5027068;28;20105;-66
2023/06/03 05:59:05;;;;;;;7.43;2.40;;;;;;;-142.75;100.00;77393.19;5027484;28;20562;-66
2023/06/03 06:01:32;;;;;;;9.18;2.78;;;;;;;-142.75;100.00;77361.69;5026788;28;20030;-68
2023/06/03 06:03:58;;;;;;;7.55;2.55;;;;;;;-142.75;100.00;77349.88;5026541;28;20029;-68
2023/06/03 06:06:23;;;;;;;7.70;2.10;;;;;;;-142.75;100.00;77330.19;5026699;28;20697;-67
2023/06/03 06:08:48;;;;;;;5.70;2.33;;;;;;;-142.75;100.00;77318.38;5026480;28;20026;-66
2023/06/03 06:11:13;;;;;;;6.35;2.35;;;;;;;-142.75;100.00;77336.09;5055710;28;20060;-66
2023/06/03 06:13:39;;;;;;;5.07;1.90;;;;;;;-142.75;100.00;77328.22;5046706;28;20166;-67
2023/06/03 06:16:05;;;;;;;6.65;2.55;;;;;;;-142.75;100.00;77312.47;5046160;28;20032;-67
2023/06/03 06:18:30;;;;;;;4.18;1.88;;;;;;;-142.75;100.00;77286.88;5033556;28;20029;-68
2023/06/03 06:20:56;;;;;;;4.53;2.08;;;;;;;-142.75;100.00;77251.44;5027697;28;20109;-67
2023/06/03 06:23:22;;;;;;;8.27;1.90;;;;;;;-142.75;100.00;77257.34;5040621;28;20080;-67
2023/06/03 06:25:49;;;;;;;4.35;2.22;;;;;;;-142.75;100.00;77235.69;5037134;28;20043;-68
2023/06/03 06:28:21;;;;;;;4.88;1.90;;;;;;;-142.75;100.00;77206.16;5046271;28;20025;-64
2023/06/03 06:30:47;;;;;;;4.75;1.95;;;;;;;-142.75;100.00;77208.13;5045930;28;20086;-66
2023/06/03 06:33:16;;;;;;;4.55;2.08;;;;;;;-142.75;100.00;77227.81;5046053;28;20504;-67
2023/06/03 06:35:42;;;;;;;4.18;2.15;;;;;;;-142.75;100.00;77200.25;5046185;28;20020;-67
2023/06/03 06:38:08;;;;;;;2.97;1.58;;;;;;;-142.75;100.00;77176.63;5045714;28;20021;-67
2023/06/03 06:40:34;;;;;;;8.85;1.88;;;;;;;-142.75;100.00;77174.66;5036681;28;20196;-70
2023/06/03 06:43:03;;;;;;;4.07;1.58;;;;;;;-142.75;100.00;77170.72;5025809;28;20109;-69
2023/06/03 06:45:31;;;;;;;5.22;2.00;;;;;;;-142.75;100.00;77164.81;5025178;28;20076;-71
2023/06/03 06:48:06;;;;;;;3.40;1.63;;;;;;;-142.75;100.00;77119.53;5040669;28;20071;-68
2023/06/03 06:50:37;;;;;;;4.88;1.85;;;;;;;-142.75;100.00;77103.78;5045248;28;20028;-67
2023/06/03 06:53:03;;;;;;;3.58;1.80;;;;;;;-142.75;99.80;77115.59;5045007;28;20040;-67
2023/06/03 06:55:41;;;;;;;3.60;2.10;;;;;;;-142.75;100.00;77086.06;5052617;28;20068;-65
2023/06/03 06:58:09;;;;;;;4.93;2.00;;;;;;;-142.75;99.44;77070.31;5037528;28;20057;-65
2023/06/03 07:00:35;;;;;;;5.30;1.65;;;;;;;-142.75;96.16;77058.50;5044435;28;20155;-65
2023/06/03 07:03:00;;;;;;;5.45;1.65;;;;;;;-142.75;94.45;77034.88;5045572;28;20060;-66
2023/06/03 07:05:25;;;;;;;6.50;1.90;;;;;;;-142.75;95.35;77054.56;5045142;28;20055;-65
2023/06/03 07:07:50;;;;;;;3.22;1.98;;;;;;;-142.75;92.89;77040.78;5045292;28;20025;-66
2023/06/03 07:10:20;;;;;;;3.92;1.83;;;;;;;-142.75;93.47;77011.25;5038188;28;20033;-67
2023/06/03 07:12:51;;;;;;;5.65;1.65;;;;;;;-142.75;90.79;77011.25;5025760;28;20033;-66
2023/06/03 07:15:17;;;;;;;10.75;1.80;;;;;;;-142.75;91.99;76967.94;5025714;28;20071;-65
2023/06/03 07:17:42;;;;;;;3.80;1.85;;;;;;;-142.75;89.15;76962.03;5041195;28;20029;-65
2023/06/03 07:20:18;;;;;;;6.00;1.65;;;;;;;-142.75;87.89;76962.03;5025373;28;20105;-66
2023/06/03 07:22:43;;;;;;;6.35;1.83;;;;;;;-142.75;88.05;76948.25;5025875;28;20025;-66
2023/06/03 07:25:19;;;;;;;4.07;1.75;;;;;;;-142.75;86.14;76936.44;5025924;28;20033;-66
2023/06/03 07:27:47;;;;;;;4.55;1.50;;;;;;;-142.75;89.33;76934.47;5024346;28;20099;-64
2023/06/03 07:30:15;;;;;;;3.38;1.50;;;;;;;-142.75;85.92;76912.81;5026512;28;20384;-65
2023/06/03 07:32:40;;;;;;;3.08;1.30;;;;;;;-142.75;85.50;76887.22;5036942;28;20021;-66
2023/06/03 07:35:06;;;;;;;4.20;1.40;;;;;;;-142.75;85.77;76865.56;5032122;28;20029;-66
2023/06/03 07:37:32;;;;;;;3.40;1.30;;;;;;;-142.75;86.83;76845.88;5043428;28;20075;-67
2023/06/03 07:39:57;;;;;;;3.08;1.60;;;;;;;-142.75;84.46;76838.00;5045047;28;20055;-66
2023/06/03 07:42:25;;;;;;;2.97;1.65;;;;;;;-142.75;82.76;76806.50;5029936;28;20431;-66
2023/06/03 07:44:50;;;;;;;3.63;1.40;;;;;;;-142.75;82.03;76822.25;5025491;28;20078;-67
2023/06/03 07:47:17;;;;;;;9.63;2.17;;;;;;;-142.75;84.67;76802.56;5025342;28;20052;-67
2023/06/03 07:49:47;;;;;;;4.88;1.85;;;;;;;-142.75;81.94;76769.13;5039346;28;20398;-66
2023/06/03 07:52:16;;;;;;;3.25;1.40;;;;;;;-142.75;80.22;76761.25;5026576;28;20057;-67
2023/06/03 07:54:42;;;;;;;2.95;1.13;;;;;;;-142.75;80.81;76747.47;5043186;28;20060;-67
2023/06/03 07:57:07;;;;;;;3.08;1.25;;;;;;;-142.75;76.57;76780.94;5033036;28;20049;-66
2023/06/03 07:59:33;;;;;;;2.75;1.10;;;;;;;-142.75;77.71;76735.66;5023973;28;20024;-67
2023/06/03 08:01:58;;;;;;;4.32;1.23;;;;;;;-142.75;79.27;76719.91;5025378;28;20113;-66
2023/06/03 08:04:31;;;;;;;3.35;1.42;;;;;;;-142.75;76.43;76698.25;5024855;28;20021;-67
2023/06/03 08:06:59;;;;;;;5.28;1.42;;;;;;;-142.75;76.39;76708.09;5024325;28;20487;-66
2023/06/03 08:09:27;;;;;;;6.72;1.55;;;;;;;-142.75;72.17;76723.84;5030837;28;20032;-66
2023/06/03 08:11:54;;;;;;;3.75;1.67;;;;;;;-142.75;72.00;76682.50;5043820;28;20070;-65
2023/06/03 08:14:21;;;;;;;6.88;1.30;;;;;;;-142.75;70.59;76688.41;5059701;28;20028;-66
2023/06/03 08:16:47;;;;;;;2.45;1.15;;;;;;;-142.75;68.44;76660.84;5043951;28;20032;-66
2023/06/03 08:19:14;;;;;;;4.53;1.10;;;;;;;-142.75;70.17;76647.06;5038276;28;20028;-67
2023/06/03 08:21:41;;;;;;;3.88;1.15;;;;;;;-142.75;71.99;76615.56;5038100;28;20374;-66
2023/06/03 08:24:08;;;;;;;2.78;1.00;;;;;;;-142.75;73.53;76609.66;5047648;28;20045;-67
2023/06/03 08:26:35;;;;;;;3.03;1.20;;;;;;;-142.75;71.42;76593.91;5048361;28;20025;-68
2023/06/03 08:29:01;;;;;;;2.45;1.20;;;;;;;-142.75;65.90;76562.41;5027961;28;20044;-66
2023/06/03 08:31:26;;;;;;;3.50;1.10;;;;;;;-142.75;72.81;76568.31;5030984;28;20036;-66
2023/06/03 08:33:52;;;;;;;5.05;1.40;;;;;;;-142.75;66.47;76560.44;5048165;28;20016;-65
2023/06/03 08:36:18;;;;;;;3.05;0.98;;;;;;;-142.75;62.49;76546.66;5035873;28;20034;-65
2023/06/03 08:38:43;;;;;;;2.67;1.20;;;;;;;-142.75;63.62;76495.50;5029512;28;20024;-66
2023/06/03 08:41:09;;;;;;;3.47;1.00;;;;;;;-142.75;61.76;76497.47;5027203;28;20390;-66
2023/06/03 08:44:18;;;;;;;7.15;1.17;;;;;;;-142.75;61.62;76497.47;5027464;28;20047;-66
2023/06/03 08:47:00;;;;;;;2.10;1.10;;;;;;;-142.75;64.44;76491.56;5027215;28;20022;-66
2023/06/03 08:49:40;;;;;;;3.20;0.82;;;;;;;-142.75;61.65;76493.53;5028337;28;20033;-66
2023/06/03 08:52:08;;;;;;;4.55;1.40;;;;;;;-142.75;59.00;76487.63;5026494;28;20024;-66
2023/06/03 08:54:37;;;;;;;5.50;1.20;;;;;;;-142.75;62.20;76465.97;5042540;28;21467;-67
2023/06/03 08:57:08;;;;;;;4.50;1.10;;;;;;;-142.75;59.35;76456.13;5026765;28;20859;-66
2023/06/03 08:59:37;;;;;;;3.65;1.45;;;;;;;-142.75;61.31;76444.31;5027252;28;20029;-66
2023/06/03 09:02:04;;;;;;;3.90;1.30;;;;;;;-142.75;61.19;76434.47;5026775;28;20029;-67
2023/06/03 09:04:31;;;;;;;3.88;1.20;;;;;;;-142.75;58.17;76420.69;5027572;28;20580;-67
2023/06/03 09:06:58;;;;;;;5.38;1.40;;;;;;;-142.75;56.35;76414.78;5028186;28;20518;-66
2023/06/03 09:09:24;;;;;;;3.58;1.02;;;;;;;-142.75;54.95;76416.75;5041904;28;20445;-67
2023/06/03 09:11:50;;;;;;;2.00;0.70;;;;;;;-142.75;52.41;76412.81;5026803;28;20033;-66
2023/06/03 09:14:17;;;;;;;4.32;1.05;;;;;;;-142.75;51.44;76416.75;5027768;28;20450;-65
2023/06/03 09:16:43;;;;;;;3.08;1.70;;;;;;;-142.75;51.44;76428.56;5026798;28;20034;-66
2023/06/03 09:19:09;;;;;;;4.75;1.40;;;;;;;-142.75;54.91;76408.88;5026748;28;20025;-66
2023/06/03 09:21:37;;;;;;;2.42;1.00;;;;;;;-142.75;55.96;76369.50;5029202;28;20226;-66
2023/06/03 09:24:03;;;;;;;2.28;0.75;;;;;;;-142.75;55.90;76334.09;5031848;28;20509;-68
2023/06/03 09:26:28;;;;;;;2.35;0.90;;;;;;;-142.75;48.04;76361.63;5041104;28;20061;-69
2023/06/03 09:28:53;;;;;;;1.95;0.90;;;;;;;-142.75;50.87;76385.25;5038228;28;20044;-68
2023/06/03 09:31:20;;;;;;;1.90;0.90;;;;;;;-142.75;49.53;76369.50;5046518;28;20029;-68
2023/06/03 09:33:46;;;;;;;1.80;0.93;;;;;;;-142.75;51.86;76389.19;5045875;28;20116;-67
2023/06/03 09:36:13;;;;;;;3.85;1.23;;;;;;;-142.75;48.37;76412.81;5043269;28;20021;-69
2023/06/03 09:38:50;;;;;;;2.78;1.00;;;;;;;-142.75;51.84;76420.69;5026623;28;20388;-68
2023/06/03 09:41:19;;;;;;;5.80;1.30;;;;;;;-142.75;48.09;76432.50;5026091;28;20033;-67
2023/06/03 09:44:11;;;;;;;3.15;1.25;;;;;;;-142.75;49.79;76456.13;5026788;28;20425;-67
2023/06/03 09:46:37;;;;;;;3.47;1.20;;;;;;;-142.75;51.12;76430.53;5025925;28;20037;-67
2023/06/03 09:49:12;;;;;;;2.28;1.00;;;;;;;-142.75;51.63;76395.09;5026024;28;20034;-68
2023/06/03 09:51:42;;;;;;;1.98;1.10;;;;;;;-142.75;47.49;76420.69;5026259;28;20029;-67
2023/06/03 09:54:17;;;;;;;5.28;1.08;;;;;;;-142.75;52.02;76383.28;5026903;28;20022;-67
2023/06/03 09:56:47;;;;;;;2.78;1.15;;;;;;;-142.75;48.59;76365.56;5027444;28;20506;-68
2023/06/03 09:59:17;;;;;;;2.67;1.23;;;;;;;-142.75;48.14;76347.84;5027284;28;20100;-67
2023/06/03 10:01:45;;;;;;;2.50;1.02;;;;;;;-142.75;46.16;76359.66;5028214;28;20104;-68
2023/06/03 10:04:11;;;;;;;2.22;1.00;;;;;;;-142.75;46.49;76365.56;5042840;28;20106;-67
2023/06/03 10:06:36;;;;;;;2.42;0.90;;;;;;;-142.75;50.67;76334.09;5026586;28;20059;-69
2023/06/03 10:09:25;;;;;;;5.60;1.13;;;;;;;-142.75;46.41;76375.41;5038265;28;20045;-67
2023/06/03 10:11:52;;;;;;;1.73;0.90;;;;;;;-142.75;45.58;76373.44;5035081;28;20033;-67
2023/06/03 10:14:25;;;;;;;3.67;0.90;;;;;;;-142.75;45.06;76345.91;5026769;28;20025;-67
2023/06/03 10:17:09;;;;;;;3.05;0.95;;;;;;;-142.75;47.08;76314.41;5028718;28;20060;-68
2023/06/03 10:19:37;;;;;;;4.82;1.02;;;;;;;-142.75;52.39;76269.13;5029609;28;20044;-68
2023/06/03 10:22:04;;;;;;;2.55;1.30;;;;;;;-142.75;47.08;76302.59;5026785;28;20057;-67
2023/06/03 10:24:32;;;;;;;4.50;0.82;;;;;;;-142.75;45.04;76286.84;5026526;28;20033;-68
2023/06/03 10:26:57;;;;;;;1.38;0.73;;;;;;;-142.75;45.25;76278.97;5028139;28;20037;-67
2023/06/03 10:29:24;;;;;;;4.07;0.88;;;;;;;-142.75;48.30;76282.91;5026567;28;20496;-68
2023/06/03 10:31:56;;;;;;;2.80;1.00;;;;;;;-142.75;48.65;76275.03;5026465;28;20041;-67
2023/06/03 10:34:21;;;;;;;1.70;0.70;;;;;;;-142.75;52.91;76215.97;5027959;28;20044;-68
2023/06/03 10:36:56;;;;;;;2.78;1.02;;;;;;;-142.75;47.46;76204.16;5026333;28;20029;-67
2023/06/03 10:39:26;;;;;;;4.18;1.05;;;;;;;-142.75;49.07;76212.03;5025507;28;20017;-67
2023/06/03 10:42:03;;;;;;;3.90;1.20;;;;;;;-142.75;47.48;76204.16;5026308;28;20025;-67
2023/06/03 10:44:30;;;;;;;3.60;1.08;;;;;;;-142.75;45.59;76219.91;5026280;28;20026;-68
2023/06/03 10:47:01;;;;;;;2.92;0.70;;;;;;;-142.75;46.87;76247.47;5027874;28;20041;-67
2023/06/03 10:49:30;;;;;;;5.00;0.90;;;;;;;-142.75;45.55;76245.50;5046258;28;20041;-68
2023/06/03 10:52:33;;;;;;;2.28;0.85;;;;;;;-142.75;49.93;76223.84;5032676;28;20029;-66
2023/06/03 10:55:21;;;;;;;2.50;0.75;;;;;;;-142.75;46.54;76186.47;5025618;28;20041;-68
2023/06/03 10:57:53;;;;;;;3.20;1.42;;;;;;;-142.75;53.75;76141.19;5026516;28;20075;-66
2023/06/03 11:00:53;;;;;;;3.80;0.93;;;;;;;-142.75;51.12;76151.03;5026179;28;20021;-68
2023/06/03 11:03:21;;;;;;;3.28;0.90;;;;;;;-142.75;49.06;76149.06;5026317;28;20104;-66
2023/06/03 11:05:47;;;;;;;1.95;0.70;;;;;;;-142.75;47.34;76149.06;5026426;28;20026;-66
2023/06/03 11:08:12;;;;;;;3.35;0.90;;;;;;;-142.75;49.89;76131.34;5026293;28;20029;-66
2023/06/03 11:10:40;;;;;;;3.28;0.90;;;;;;;-142.75;53.30;76133.31;5029882;28;20120;-67
2023/06/03 11:13:06;;;;;;;4.10;0.90;;;;;;;-142.75;43.43;76160.88;5032313;28;20025;-69
2023/06/03 11:16:00;;;;;;;3.22;1.27;;;;;;;-142.75;47.34;76135.28;5045830;28;20052;-67